sensor_id;sensor_type;location;lat;lon;timestamp;P1;durP1;ratioP1;P2;durP2;ratioP2
12908;SDS011;6522;49.622;6.126;2024-02-26T00:01:31;11.70;;;11.30;;
12908;SDS011;6522;49.622;6.126;2024-02-26T00:04:16;11.82;;;11.43;;
12908;SDS011;6522;49.622;6.126;2024-02-26T00:07:02;12.02;;;11.48;;
12908;SDS011;6522;49.622;6.126;2024-02-26T00:09:49;11.02;;;10.52;;
12908;SDS011;6522;49.622;6.126;2024-02-26T00:12:36;10.85;;;10.40;;
12908;SDS011;6522;49.622;6.126;2024-02-26T00:15:23;7.68;;;7.37;;
12908;SDS011;6522;49.622;6.126;2024-02-26T00:18:09;11.20;;;10.70;;
12908;SDS011;6522;49.622;6.126;2024-02-26T00:20:56;10.57;;;10.07;;
12908;SDS011;6522;49.622;6.126;2024-02-26T00:23:43;9.82;;;9.40;;
12908;SDS011;6522;49.622;6.126;2024-02-26T00:26:29;9.95;;;9.45;;
12908;SDS011;6522;49.622;6.126;2024-02-26T00:29:16;9.70;;;9.20;;
12908;SDS011;6522;49.622;6.126;2024-02-26T00:32:03;9.15;;;8.75;;
12908;SDS011;6522;49.622;6.126;2024-02-26T00:34:49;9.10;;;8.70;;
12908;SDS011;6522;49.622;6.126;2024-02-26T00:37:36;7.85;;;7.35;;
12908;SDS011;6522;49.622;6.126;2024-02-26T00:40:23;7.90;;;7.30;;
12908;SDS011;6522;49.622;6.126;2024-02-26T00:43:09;5.37;;;5.00;;
12908;SDS011;6522;49.622;6.126;2024-02-26T00:45:56;8.40;;;8.10;;
12908;SDS011;6522;49.622;6.126;2024-02-26T00:48:43;8.13;;;7.72;;
12908;SDS011;6522;49.622;6.126;2024-02-26T00:51:30;7.93;;;7.43;;
12908;SDS011;6522;49.622;6.126;2024-02-26T00:54:17;7.43;;;7.12;;
12908;SDS011;6522;49.622;6.126;2024-02-26T00:57:04;7.75;;;7.35;;
12908;SDS011;6522;49.622;6.126;2024-02-26T00:59:50;6.70;;;6.40;;
12908;SDS011;6522;49.622;6.126;2024-02-26T01:02:37;6.72;;;6.45;;
12908;SDS011;6522;49.622;6.126;2024-02-26T01:05:24;4.35;;;4.15;;
12908;SDS011;6522;49.622;6.126;2024-02-26T01:08:11;7.25;;;6.85;;
12908;SDS011;6522;49.622;6.126;2024-02-26T01:10:58;6.40;;;6.10;;
12908;SDS011;6522;49.622;6.126;2024-02-26T01:13:44;6.28;;;6.00;;
12908;SDS011;6522;49.622;6.126;2024-02-26T01:16:31;6.07;;;5.82;;
12908;SDS011;6522;49.622;6.126;2024-02-26T01:19:18;6.43;;;6.03;;
12908;SDS011;6522;49.622;6.126;2024-02-26T01:22:05;6.50;;;6.20;;
12908;SDS011;6522;49.622;6.126;2024-02-26T01:24:52;6.62;;;6.43;;
12908;SDS011;6522;49.622;6.126;2024-02-26T01:27:39;6.85;;;6.40;;
12908;SDS011;6522;49.622;6.126;2024-02-26T01:30:25;5.43;;;5.22;;
12908;SDS011;6522;49.622;6.126;2024-02-26T01:33:12;7.00;;;6.80;;
12908;SDS011;6522;49.622;6.126;2024-02-26T01:35:59;6.30;;;6.10;;
12908;SDS011;6522;49.622;6.126;2024-02-26T01:38:46;5.72;;;5.53;;
12908;SDS011;6522;49.622;6.126;2024-02-26T01:41:33;5.80;;;5.60;;
12908;SDS011;6522;49.622;6.126;2024-02-26T01:44:21;6.05;;;5.85;;
12908;SDS011;6522;49.622;6.126;2024-02-26T01:47:07;6.00;;;5.80;;
12908;SDS011;6522;49.622;6.126;2024-02-26T01:49:54;6.30;;;6.10;;
12908;SDS011;6522;49.622;6.126;2024-02-26T01:52:40;6.28;;;6.07;;
12908;SDS011;6522;49.622;6.126;2024-02-26T01:55:27;6.20;;;6.00;;
12908;SDS011;6522;49.622;6.126;2024-02-26T01:58:13;7.43;;;7.10;;
12908;SDS011;6522;49.622;6.126;2024-02-26T02:01:00;5.93;;;5.72;;
12908;SDS011;6522;49.622;6.126;2024-02-26T02:03:47;3.42;;;3.33;;
12908;SDS011;6522;49.622;6.126;2024-02-26T02:06:34;6.62;;;6.43;;
12908;SDS011;6522;49.622;6.126;2024-02-26T02:09:21;6.30;;;6.10;;
12908;SDS011;6522;49.622;6.126;2024-02-26T02:12:08;6.57;;;6.37;;
12908;SDS011;6522;49.622;6.126;2024-02-26T02:14:55;5.85;;;5.65;;
12908;SDS011;6522;49.622;6.126;2024-02-26T02:17:41;5.80;;;5.60;;
12908;SDS011;6522;49.622;6.126;2024-02-26T02:20:32;5.62;;;5.43;;
12908;SDS011;6522;49.622;6.126;2024-02-26T02:23:18;5.80;;;5.60;;
12908;SDS011;6522;49.622;6.126;2024-02-26T02:26:05;5.22;;;5.03;;
12908;SDS011;6522;49.622;6.126;2024-02-26T02:28:52;5.50;;;5.30;;
12908;SDS011;6522;49.622;6.126;2024-02-26T02:31:38;3.97;;;3.78;;
12908;SDS011;6522;49.622;6.126;2024-02-26T02:34:25;5.80;;;5.60;;
12908;SDS011;6522;49.622;6.126;2024-02-26T02:37:13;5.40;;;5.20;;
12908;SDS011;6522;49.622;6.126;2024-02-26T02:39:59;5.10;;;4.90;;
12908;SDS011;6522;49.622;6.126;2024-02-26T02:42:46;5.50;;;5.30;;
12908;SDS011;6522;49.622;6.126;2024-02-26T02:45:33;5.65;;;5.45;;
12908;SDS011;6522;49.622;6.126;2024-02-26T02:48:19;4.75;;;4.65;;
12908;SDS011;6522;49.622;6.126;2024-02-26T02:51:06;4.95;;;4.75;;
12908;SDS011;6522;49.622;6.126;2024-02-26T02:53:53;5.00;;;4.80;;
12908;SDS011;6522;49.622;6.126;2024-02-26T02:56:40;5.10;;;4.90;;
12908;SDS011;6522;49.622;6.126;2024-02-26T02:59:26;4.70;;;4.60;;
12908;SDS011;6522;49.622;6.126;2024-02-26T03:02:13;4.30;;;4.20;;
12908;SDS011;6522;49.622;6.126;2024-02-26T03:05:00;4.10;;;4.00;;
12908;SDS011;6522;49.622;6.126;2024-02-26T03:07:47;4.30;;;4.20;;
12908;SDS011;6522;49.622;6.126;2024-02-26T03:10:34;4.20;;;4.10;;
12908;SDS011;6522;49.622;6.126;2024-02-26T03:13:20;4.00;;;3.90;;
12908;SDS011;6522;49.622;6.126;2024-02-26T03:16:07;3.95;;;3.85;;
12908;SDS011;6522;49.622;6.126;2024-02-26T03:18:54;4.00;;;3.90;;
12908;SDS011;6522;49.622;6.126;2024-02-26T03:21:41;3.78;;;3.67;;
12908;SDS011;6522;49.622;6.126;2024-02-26T03:24:27;4.10;;;4.00;;
12908;SDS011;6522;49.622;6.126;2024-02-26T03:27:14;3.90;;;3.80;;
12908;SDS011;6522;49.622;6.126;2024-02-26T03:30:02;3.60;;;3.50;;
12908;SDS011;6522;49.622;6.126;2024-02-26T03:32:48;3.60;;;3.50;;
12908;SDS011;6522;49.622;6.126;2024-02-26T03:35:35;4.12;;;4.03;;
12908;SDS011;6522;49.622;6.126;2024-02-26T03:38:21;4.60;;;4.50;;
12908;SDS011;6522;49.622;6.126;2024-02-26T03:41:08;3.80;;;3.70;;
12908;SDS011;6522;49.622;6.126;2024-02-26T03:43:54;3.40;;;3.30;;
12908;SDS011;6522;49.622;6.126;2024-02-26T03:46:41;1.40;;;1.40;;
12908;SDS011;6522;49.622;6.126;2024-02-26T03:49:31;3.60;;;3.50;;
12908;SDS011;6522;49.622;6.126;2024-02-26T03:52:18;3.70;;;3.60;;
12908;SDS011;6522;49.622;6.126;2024-02-26T03:55:05;2.03;;;1.92;;
12908;SDS011;6522;49.622;6.126;2024-02-26T03:57:52;4.30;;;4.20;;
12908;SDS011;6522;49.622;6.126;2024-02-26T04:00:39;1.90;;;1.80;;
12908;SDS011;6522;49.622;6.126;2024-02-26T04:03:25;3.83;;;3.72;;
12908;SDS011;6522;49.622;6.126;2024-02-26T04:06:12;3.80;;;3.70;;
12908;SDS011;6522;49.622;6.126;2024-02-26T04:09:02;3.60;;;3.50;;
12908;SDS011;6522;49.622;6.126;2024-02-26T04:11:48;1.80;;;1.70;;
12908;SDS011;6522;49.622;6.126;2024-02-26T04:14:35;3.80;;;3.70;;
12908;SDS011;6522;49.622;6.126;2024-02-26T04:17:22;3.80;;;3.70;;
12908;SDS011;6522;49.622;6.126;2024-02-26T04:20:12;3.80;;;3.70;;
12908;SDS011;6522;49.622;6.126;2024-02-26T04:22:55;3.50;;;3.40;;
12908;SDS011;6522;49.622;6.126;2024-02-26T04:25:42;1.70;;;1.60;;
12908;SDS011;6522;49.622;6.126;2024-02-26T04:28:29;3.60;;;3.50;;
12908;SDS011;6522;49.622;6.126;2024-02-26T04:31:16;3.60;;;3.50;;
12908;SDS011;6522;49.622;6.126;2024-02-26T04:34:03;3.40;;;3.30;;
12908;SDS011;6522;49.622;6.126;2024-02-26T04:36:50;1.60;;;1.50;;
12908;SDS011;6522;49.622;6.126;2024-02-26T04:39:36;3.30;;;3.20;;
12908;SDS011;6522;49.622;6.126;2024-02-26T04:42:23;3.80;;;3.70;;
12908;SDS011;6522;49.622;6.126;2024-02-26T04:45:10;3.62;;;3.53;;
12908;SDS011;6522;49.622;6.126;2024-02-26T04:47:56;3.87;;;3.78;;
12908;SDS011;6522;49.622;6.126;2024-02-26T04:50:43;3.30;;;3.20;;
12908;SDS011;6522;49.622;6.126;2024-02-26T04:53:30;3.30;;;3.20;;
12908;SDS011;6522;49.622;6.126;2024-02-26T04:56:17;3.35;;;3.25;;
12908;SDS011;6522;49.622;6.126;2024-02-26T04:59:03;3.25;;;3.15;;
12908;SDS011;6522;49.622;6.126;2024-02-26T05:01:50;3.40;;;3.30;;
12908;SDS011;6522;49.622;6.126;2024-02-26T05:04:37;3.40;;;3.30;;
12908;SDS011;6522;49.622;6.126;2024-02-26T05:07:24;3.12;;;3.03;;
12908;SDS011;6522;49.622;6.126;2024-02-26T05:10:10;3.30;;;3.20;;
12908;SDS011;6522;49.622;6.126;2024-02-26T05:12:57;1.60;;;1.50;;
12908;SDS011;6522;49.622;6.126;2024-02-26T05:15:44;3.20;;;3.10;;
12908;SDS011;6522;49.622;6.126;2024-02-26T05:18:30;3.40;;;3.30;;
12908;SDS011;6522;49.622;6.126;2024-02-26T05:21:17;3.50;;;3.40;;
12908;SDS011;6522;49.622;6.126;2024-02-26T05:24:04;3.50;;;3.40;;
12908;SDS011;6522;49.622;6.126;2024-02-26T05:26:51;4.00;;;3.90;;
12908;SDS011;6522;49.622;6.126;2024-02-26T05:29:38;4.50;;;4.40;;
12908;SDS011;6522;49.622;6.126;2024-02-26T05:32:25;5.80;;;5.60;;
12908;SDS011;6522;49.622;6.126;2024-02-26T05:35:12;6.00;;;5.80;;
12908;SDS011;6522;49.622;6.126;2024-02-26T05:37:58;5.40;;;5.20;;
12908;SDS011;6522;49.622;6.126;2024-02-26T05:40:45;6.12;;;5.93;;
12908;SDS011;6522;49.622;6.126;2024-02-26T05:43:32;5.30;;;5.10;;
12908;SDS011;6522;49.622;6.126;2024-02-26T05:46:19;5.60;;;5.40;;
12908;SDS011;6522;49.622;6.126;2024-02-26T05:49:05;5.15;;;5.00;;
12908;SDS011;6522;49.622;6.126;2024-02-26T05:51:52;4.80;;;4.70;;
12908;SDS011;6522;49.622;6.126;2024-02-26T05:54:39;4.40;;;4.30;;
12908;SDS011;6522;49.622;6.126;2024-02-26T05:57:25;4.82;;;4.72;;
12908;SDS011;6522;49.622;6.126;2024-02-26T06:00:12;4.50;;;4.40;;
12908;SDS011;6522;49.622;6.126;2024-02-26T06:02:59;4.53;;;4.43;;
12908;SDS011;6522;49.622;6.126;2024-02-26T06:05:46;4.40;;;4.30;;
12908;SDS011;6522;49.622;6.126;2024-02-26T06:08:33;4.22;;;4.12;;
12908;SDS011;6522;49.622;6.126;2024-02-26T06:11:20;4.10;;;4.00;;
12908;SDS011;6522;49.622;6.126;2024-02-26T06:14:06;3.85;;;3.75;;
12908;SDS011;6522;49.622;6.126;2024-02-26T06:16:53;4.40;;;4.30;;
12908;SDS011;6522;49.622;6.126;2024-02-26T06:19:39;4.50;;;4.40;;
12908;SDS011;6522;49.622;6.126;2024-02-26T06:22:26;4.20;;;4.10;;
12908;SDS011;6522;49.622;6.126;2024-02-26T06:25:13;2.10;;;2.00;;
12908;SDS011;6522;49.622;6.126;2024-02-26T06:28:00;4.62;;;4.53;;
12908;SDS011;6522;49.622;6.126;2024-02-26T06:30:46;4.43;;;4.32;;
12908;SDS011;6522;49.622;6.126;2024-02-26T06:33:33;4.50;;;4.40;;
12908;SDS011;6522;49.622;6.126;2024-02-26T06:36:20;2.50;;;2.40;;
12908;SDS011;6522;49.622;6.126;2024-02-26T06:39:06;4.70;;;4.60;;
12908;SDS011;6522;49.622;6.126;2024-02-26T06:41:53;4.20;;;4.10;;
12908;SDS011;6522;49.622;6.126;2024-02-26T06:44:42;4.50;;;4.40;;
12908;SDS011;6522;49.622;6.126;2024-02-26T06:47:29;4.43;;;4.32;;
12908;SDS011;6522;49.622;6.126;2024-02-26T06:50:16;4.70;;;4.60;;
12908;SDS011;6522;49.622;6.126;2024-02-26T06:53:03;4.60;;;4.50;;
12908;SDS011;6522;49.622;6.126;2024-02-26T06:55:50;4.20;;;4.10;;
12908;SDS011;6522;49.622;6.126;2024-02-26T06:58:37;4.50;;;4.40;;
12908;SDS011;6522;49.622;6.126;2024-02-26T07:01:23;4.40;;;4.30;;
12908;SDS011;6522;49.622;6.126;2024-02-26T07:04:10;4.20;;;4.10;;
12908;SDS011;6522;49.622;6.126;2024-02-26T07:06:57;4.40;;;4.30;;
12908;SDS011;6522;49.622;6.126;2024-02-26T07:09:44;4.62;;;4.53;;
12908;SDS011;6522;49.622;6.126;2024-02-26T07:12:31;4.10;;;4.00;;
12908;SDS011;6522;49.622;6.126;2024-02-26T07:15:17;4.30;;;4.20;;
12908;SDS011;6522;49.622;6.126;2024-02-26T07:18:04;4.28;;;4.18;;
12908;SDS011;6522;49.622;6.126;2024-02-26T07:20:51;4.37;;;4.28;;
12908;SDS011;6522;49.622;6.126;2024-02-26T07:23:38;4.50;;;4.40;;
12908;SDS011;6522;49.622;6.126;2024-02-26T07:26:25;3.87;;;3.78;;
12908;SDS011;6522;49.622;6.126;2024-02-26T07:29:11;4.00;;;3.90;;
12908;SDS011;6522;49.622;6.126;2024-02-26T07:31:58;4.10;;;4.00;;
12908;SDS011;6522;49.622;6.126;2024-02-26T07:34:45;5.20;;;5.00;;
12908;SDS011;6522;49.622;6.126;2024-02-26T07:37:31;3.90;;;3.80;;
12908;SDS011;6522;49.622;6.126;2024-02-26T07:40:18;3.70;;;3.60;;
12908;SDS011;6522;49.622;6.126;2024-02-26T07:43:05;2.00;;;1.90;;
12908;SDS011;6522;49.622;6.126;2024-02-26T07:45:51;3.90;;;3.80;;
12908;SDS011;6522;49.622;6.126;2024-02-26T07:48:38;3.90;;;3.80;;
12908;SDS011;6522;49.622;6.126;2024-02-26T07:51:25;3.80;;;3.70;;
12908;SDS011;6522;49.622;6.126;2024-02-26T07:54:12;3.90;;;3.80;;
12908;SDS011;6522;49.622;6.126;2024-02-26T07:56:59;3.80;;;3.70;;
12908;SDS011;6522;49.622;6.126;2024-02-26T07:59:46;3.95;;;3.85;;
12908;SDS011;6522;49.622;6.126;2024-02-26T08:02:33;4.40;;;4.30;;
12908;SDS011;6522;49.622;6.126;2024-02-26T08:05:20;4.25;;;4.15;;
12908;SDS011;6522;49.622;6.126;2024-02-26T08:08:06;4.95;;;4.75;;
12908;SDS011;6522;49.622;6.126;2024-02-26T08:10:53;4.30;;;4.20;;
12908;SDS011;6522;49.622;6.126;2024-02-26T08:13:40;4.40;;;4.30;;
12908;SDS011;6522;49.622;6.126;2024-02-26T08:16:27;4.25;;;4.15;;
12908;SDS011;6522;49.622;6.126;2024-02-26T08:19:14;4.20;;;4.10;;
12908;SDS011;6522;49.622;6.126;2024-02-26T08:22:01;4.18;;;4.07;;
12908;SDS011;6522;49.622;6.126;2024-02-26T08:24:47;4.20;;;4.10;;
12908;SDS011;6522;49.622;6.126;2024-02-26T08:27:34;3.90;;;3.80;;
12908;SDS011;6522;49.622;6.126;2024-02-26T08:30:21;4.20;;;4.10;;
12908;SDS011;6522;49.622;6.126;2024-02-26T08:33:08;3.95;;;3.85;;
12908;SDS011;6522;49.622;6.126;2024-02-26T08:35:55;3.90;;;3.80;;
12908;SDS011;6522;49.622;6.126;2024-02-26T08:38:42;4.00;;;3.90;;
12908;SDS011;6522;49.622;6.126;2024-02-26T08:41:28;3.97;;;3.87;;
12908;SDS011;6522;49.622;6.126;2024-02-26T08:44:15;4.15;;;4.05;;
12908;SDS011;6522;49.622;6.126;2024-02-26T08:47:02;4.53;;;4.43;;
12908;SDS011;6522;49.622;6.126;2024-02-26T08:49:49;4.20;;;4.10;;
12908;SDS011;6522;49.622;6.126;2024-02-26T08:52:35;2.30;;;2.20;;
12908;SDS011;6522;49.622;6.126;2024-02-26T08:55:23;4.85;;;4.75;;
12908;SDS011;6522;49.622;6.126;2024-02-26T08:58:09;4.72;;;4.62;;
12908;SDS011;6522;49.622;6.126;2024-02-26T09:00:56;4.22;;;4.12;;
12908;SDS011;6522;49.622;6.126;2024-02-26T09:03:43;4.30;;;4.20;;
12908;SDS011;6522;49.622;6.126;2024-02-26T09:06:30;4.10;;;4.00;;
12908;SDS011;6522;49.622;6.126;2024-02-26T09:09:17;4.40;;;4.30;;
12908;SDS011;6522;49.622;6.126;2024-02-26T09:12:04;4.70;;;4.60;;
12908;SDS011;6522;49.622;6.126;2024-02-26T09:14:50;4.80;;;4.70;;
12908;SDS011;6522;49.622;6.126;2024-02-26T09:17:37;4.85;;;4.70;;
12908;SDS011;6522;49.622;6.126;2024-02-26T09:20:23;4.35;;;4.25;;
12908;SDS011;6522;49.622;6.126;2024-02-26T09:23:10;4.20;;;4.10;;
12908;SDS011;6522;49.622;6.126;2024-02-26T09:25:57;5.53;;;5.15;;
12908;SDS011;6522;49.622;6.126;2024-02-26T09:28:45;4.40;;;4.30;;
12908;SDS011;6522;49.622;6.126;2024-02-26T09:31:31;4.10;;;4.00;;
12908;SDS011;6522;49.622;6.126;2024-02-26T09:34:18;4.15;;;4.05;;
12908;SDS011;6522;49.622;6.126;2024-02-26T09:37:04;2.40;;;2.30;;
12908;SDS011;6522;49.622;6.126;2024-02-26T09:39:51;4.25;;;4.15;;
12908;SDS011;6522;49.622;6.126;2024-02-26T09:42:40;4.00;;;3.90;;
12908;SDS011;6522;49.622;6.126;2024-02-26T09:45:25;3.80;;;3.70;;
12908;SDS011;6522;49.622;6.126;2024-02-26T09:48:11;3.80;;;3.70;;
12908;SDS011;6522;49.622;6.126;2024-02-26T09:50:58;3.70;;;3.60;;
12908;SDS011;6522;49.622;6.126;2024-02-26T09:53:45;2.50;;;2.40;;
12908;SDS011;6522;49.622;6.126;2024-02-26T09:56:31;3.80;;;3.70;;
12908;SDS011;6522;49.622;6.126;2024-02-26T09:59:18;5.18;;;4.95;;
12908;SDS011;6522;49.622;6.126;2024-02-26T10:02:05;2.80;;;2.70;;
12908;SDS011;6522;49.622;6.126;2024-02-26T10:04:52;2.92;;;2.83;;
12908;SDS011;6522;49.622;6.126;2024-02-26T10:07:38;1.70;;;1.60;;
12908;SDS011;6522;49.622;6.126;2024-02-26T10:10:25;2.80;;;2.70;;
12908;SDS011;6522;49.622;6.126;2024-02-26T10:13:12;2.40;;;2.30;;
12908;SDS011;6522;49.622;6.126;2024-02-26T10:15:59;2.20;;;2.10;;
12908;SDS011;6522;49.622;6.126;2024-02-26T10:18:46;2.10;;;2.00;;
12908;SDS011;6522;49.622;6.126;2024-02-26T10:21:32;2.50;;;2.40;;
12908;SDS011;6522;49.622;6.126;2024-02-26T10:24:19;2.10;;;2.00;;
12908;SDS011;6522;49.622;6.126;2024-02-26T10:27:06;0.90;;;0.80;;
12908;SDS011;6522;49.622;6.126;2024-02-26T10:29:52;2.80;;;2.70;;
12908;SDS011;6522;49.622;6.126;2024-02-26T10:32:39;2.80;;;2.70;;
12908;SDS011;6522;49.622;6.126;2024-02-26T10:35:26;1.60;;;1.50;;
12908;SDS011;6522;49.622;6.126;2024-02-26T10:38:13;2.90;;;2.80;;
12908;SDS011;6522;49.622;6.126;2024-02-26T10:41:01;2.50;;;2.40;;
12908;SDS011;6522;49.622;6.126;2024-02-26T10:43:47;2.20;;;2.10;;
12908;SDS011;6522;49.622;6.126;2024-02-26T10:46:34;2.20;;;2.10;;
12908;SDS011;6522;49.622;6.126;2024-02-26T10:49:21;2.17;;;2.08;;
12908;SDS011;6522;49.622;6.126;2024-02-26T10:52:07;2.30;;;2.20;;
12908;SDS011;6522;49.622;6.126;2024-02-26T10:54:54;2.70;;;2.60;;
12908;SDS011;6522;49.622;6.126;2024-02-26T10:57:41;2.85;;;2.75;;
12908;SDS011;6522;49.622;6.126;2024-02-26T11:00:28;5.68;;;5.18;;
12908;SDS011;6522;49.622;6.126;2024-02-26T11:03:15;5.22;;;4.85;;
12908;SDS011;6522;49.622;6.126;2024-02-26T11:06:01;5.22;;;4.93;;
12908;SDS011;6522;49.622;6.126;2024-02-26T11:08:49;5.93;;;5.53;;
12908;SDS011;6522;49.622;6.126;2024-02-26T11:11:35;4.30;;;4.00;;
12908;SDS011;6522;49.622;6.126;2024-02-26T11:14:22;6.05;;;5.65;;
12908;SDS011;6522;49.622;6.126;2024-02-26T11:17:09;6.80;;;6.25;;
12908;SDS011;6522;49.622;6.126;2024-02-26T11:19:55;5.85;;;5.45;;
12908;SDS011;6522;49.622;6.126;2024-02-26T11:22:42;6.32;;;5.90;;
12908;SDS011;6522;49.622;6.126;2024-02-26T11:25:29;6.55;;;6.15;;
12908;SDS011;6522;49.622;6.126;2024-02-26T11:28:16;6.18;;;5.78;;
12908;SDS011;6522;49.622;6.126;2024-02-26T11:31:02;6.70;;;6.20;;
12908;SDS011;6522;49.622;6.126;2024-02-26T11:33:49;6.90;;;6.40;;
12908;SDS011;6522;49.622;6.126;2024-02-26T11:36:36;7.47;;;6.85;;
12908;SDS011;6522;49.622;6.126;2024-02-26T11:39:23;7.00;;;6.50;;
12908;SDS011;6522;49.622;6.126;2024-02-26T11:42:10;6.97;;;6.47;;
12908;SDS011;6522;49.622;6.126;2024-02-26T11:44:56;6.55;;;5.20;;
12908;SDS011;6522;49.622;6.126;2024-02-26T11:47:43;8.25;;;7.65;;
12908;SDS011;6522;49.622;6.126;2024-02-26T11:50:33;6.85;;;6.22;;
12908;SDS011;6522;49.622;6.126;2024-02-26T11:53:19;7.60;;;6.90;;
12908;SDS011;6522;49.622;6.126;2024-02-26T11:59:08;9.20;;;8.40;;
12908;SDS011;6522;49.622;6.126;2024-02-26T12:01:49;10.07;;;9.38;;
12908;SDS011;6522;49.622;6.126;2024-02-26T12:04:35;9.63;;;8.80;;
12908;SDS011;6522;49.622;6.126;2024-02-26T12:07:22;10.23;;;9.60;;
12908;SDS011;6522;49.622;6.126;2024-02-26T12:10:15;10.38;;;9.68;;
12908;SDS011;6522;49.622;6.126;2024-02-26T12:13:05;11.10;;;10.40;;
12908;SDS011;6522;49.622;6.126;2024-02-26T12:18:38;11.70;;;11.00;;
12908;SDS011;6522;49.622;6.126;2024-02-26T12:21:25;11.98;;;11.27;;
12908;SDS011;6522;49.622;6.126;2024-02-26T12:24:15;6.87;;;6.37;;
12908;SDS011;6522;49.622;6.126;2024-02-26T12:27:02;11.10;;;10.50;;
12908;SDS011;6522;49.622;6.126;2024-02-26T12:29:48;10.20;;;9.70;;
12908;SDS011;6522;49.622;6.126;2024-02-26T12:32:35;10.15;;;9.65;;
12908;SDS011;6522;49.622;6.126;2024-02-26T12:35:22;9.85;;;9.35;;
12908;SDS011;6522;49.622;6.126;2024-02-26T12:38:09;9.23;;;8.73;;
12908;SDS011;6522;49.622;6.126;2024-02-26T12:40:56;8.70;;;8.25;;
12908;SDS011;6522;49.622;6.126;2024-02-26T12:43:42;8.80;;;8.40;;
12908;SDS011;6522;49.622;6.126;2024-02-26T12:46:29;9.10;;;8.60;;
12908;SDS011;6522;49.622;6.126;2024-02-26T12:49:16;9.80;;;9.20;;
12908;SDS011;6522;49.622;6.126;2024-02-26T12:52:03;6.80;;;6.30;;
12908;SDS011;6522;49.622;6.126;2024-02-26T12:54:50;9.10;;;8.60;;
12908;SDS011;6522;49.622;6.126;2024-02-26T12:57:37;9.60;;;9.10;;
12908;SDS011;6522;49.622;6.126;2024-02-26T13:00:25;8.90;;;8.40;;
12908;SDS011;6522;49.622;6.126;2024-02-26T13:03:10;8.85;;;8.35;;
12908;SDS011;6522;49.622;6.126;2024-02-26T13:05:57;9.30;;;8.80;;
12908;SDS011;6522;49.622;6.126;2024-02-26T13:08:45;9.88;;;8.27;;
12908;SDS011;6522;49.622;6.126;2024-02-26T13:11:31;7.80;;;7.40;;
12908;SDS011;6522;49.622;6.126;2024-02-26T13:14:21;8.50;;;8.10;;
12908;SDS011;6522;49.622;6.126;2024-02-26T13:17:08;7.60;;;7.20;;
12908;SDS011;6522;49.622;6.126;2024-02-26T13:19:55;5.75;;;5.30;;
12908;SDS011;6522;49.622;6.126;2024-02-26T13:22:42;8.30;;;7.80;;
12908;SDS011;6522;49.622;6.126;2024-02-26T13:25:28;8.55;;;8.10;;
12908;SDS011;6522;49.622;6.126;2024-02-26T13:28:15;7.85;;;7.45;;
12908;SDS011;6522;49.622;6.126;2024-02-26T13:31:02;8.65;;;8.05;;
12908;SDS011;6522;49.622;6.126;2024-02-26T13:33:48;8.82;;;8.27;;
12908;SDS011;6522;49.622;6.126;2024-02-26T13:36:35;9.95;;;9.35;;
12908;SDS011;6522;49.622;6.126;2024-02-26T13:39:26;7.93;;;7.43;;
12908;SDS011;6522;49.622;6.126;2024-02-26T13:42:12;8.80;;;8.10;;
12908;SDS011;6522;49.622;6.126;2024-02-26T13:44:58;12.40;;;11.73;;
12908;SDS011;6522;49.622;6.126;2024-02-26T13:47:45;12.55;;;11.75;;
12908;SDS011;6522;49.622;6.126;2024-02-26T13:50:32;11.98;;;11.48;;
12908;SDS011;6522;49.622;6.126;2024-02-26T13:53:18;12.20;;;11.60;;
12908;SDS011;6522;49.622;6.126;2024-02-26T13:56:05;12.07;;;11.48;;
12908;SDS011;6522;49.622;6.126;2024-02-26T13:58:52;10.95;;;10.45;;
12908;SDS011;6522;49.622;6.126;2024-02-26T14:01:38;10.63;;;10.13;;
12908;SDS011;6522;49.622;6.126;2024-02-26T14:04:25;10.70;;;10.20;;
12908;SDS011;6522;49.622;6.126;2024-02-26T14:07:12;10.85;;;10.25;;
12908;SDS011;6522;49.622;6.126;2024-02-26T14:09:59;9.60;;;9.10;;
12908;SDS011;6522;49.622;6.126;2024-02-26T14:12:45;9.88;;;9.40;;
12908;SDS011;6522;49.622;6.126;2024-02-26T14:15:33;7.22;;;6.60;;
12908;SDS011;6522;49.622;6.126;2024-02-26T14:18:19;10.10;;;9.50;;
12908;SDS011;6522;49.622;6.126;2024-02-26T14:21:06;10.40;;;9.80;;
12908;SDS011;6522;49.622;6.126;2024-02-26T14:23:53;9.82;;;9.30;;
12908;SDS011;6522;49.622;6.126;2024-02-26T14:26:40;8.85;;;8.25;;
12908;SDS011;6522;49.622;6.126;2024-02-26T14:29:26;6.45;;;6.05;;
12908;SDS011;6522;49.622;6.126;2024-02-26T14:32:13;9.23;;;8.63;;
12908;SDS011;6522;49.622;6.126;2024-02-26T14:34:59;9.00;;;8.30;;
12908;SDS011;6522;49.622;6.126;2024-02-26T14:37:47;8.50;;;7.90;;
12908;SDS011;6522;49.622;6.126;2024-02-26T14:40:34;8.95;;;8.23;;
12908;SDS011;6522;49.622;6.126;2024-02-26T14:43:20;7.57;;;7.18;;
12908;SDS011;6522;49.622;6.126;2024-02-26T14:46:07;5.25;;;4.85;;
12908;SDS011;6522;49.622;6.126;2024-02-26T14:48:55;9.35;;;8.40;;
12908;SDS011;6522;49.622;6.126;2024-02-26T14:51:41;8.35;;;7.65;;
12908;SDS011;6522;49.622;6.126;2024-02-26T14:54:28;7.90;;;7.40;;
12908;SDS011;6522;49.622;6.126;2024-02-26T14:57:15;7.85;;;7.40;;
12908;SDS011;6522;49.622;6.126;2024-02-26T15:00:02;7.40;;;7.00;;
12908;SDS011;6522;49.622;6.126;2024-02-26T15:02:48;7.45;;;6.95;;
12908;SDS011;6522;49.622;6.126;2024-02-26T15:05:36;4.68;;;4.28;;
12908;SDS011;6522;49.622;6.126;2024-02-26T15:08:22;6.80;;;6.30;;
12908;SDS011;6522;49.622;6.126;2024-02-26T15:11:09;4.60;;;4.20;;
12908;SDS011;6522;49.622;6.126;2024-02-26T15:13:55;8.02;;;7.50;;
12908;SDS011;6522;49.622;6.126;2024-02-26T15:16:42;7.72;;;7.32;;
12908;SDS011;6522;49.622;6.126;2024-02-26T15:19:29;7.40;;;7.00;;
12908;SDS011;6522;49.622;6.126;2024-02-26T15:22:16;7.53;;;7.03;;
12908;SDS011;6522;49.622;6.126;2024-02-26T15:25:02;6.72;;;6.30;;
12908;SDS011;6522;49.622;6.126;2024-02-26T15:27:49;5.90;;;5.40;;
12908;SDS011;6522;49.622;6.126;2024-02-26T15:30:36;5.40;;;5.03;;
12908;SDS011;6522;49.622;6.126;2024-02-26T15:33:23;5.40;;;5.00;;
12908;SDS011;6522;49.622;6.126;2024-02-26T15:36:10;4.93;;;4.65;;
12908;SDS011;6522;49.622;6.126;2024-02-26T15:38:56;5.03;;;4.62;;
12908;SDS011;6522;49.622;6.126;2024-02-26T15:41:43;4.05;;;3.85;;
12908;SDS011;6522;49.622;6.126;2024-02-26T15:44:30;6.47;;;4.20;;
12908;SDS011;6522;49.622;6.126;2024-02-26T15:47:16;4.45;;;4.15;;
12908;SDS011;6522;49.622;6.126;2024-02-26T15:50:06;4.50;;;4.20;;
12908;SDS011;6522;49.622;6.126;2024-02-26T15:52:50;4.30;;;4.00;;
12908;SDS011;6522;49.622;6.126;2024-02-26T15:55:37;4.70;;;4.40;;
12908;SDS011;6522;49.622;6.126;2024-02-26T15:58:24;6.53;;;4.70;;
12908;SDS011;6522;49.622;6.126;2024-02-26T16:01:11;5.00;;;4.60;;
12908;SDS011;6522;49.622;6.126;2024-02-26T16:03:58;4.70;;;4.30;;
12908;SDS011;6522;49.622;6.126;2024-02-26T16:06:46;4.07;;;3.87;;
12908;SDS011;6522;49.622;6.126;2024-02-26T16:09:31;5.07;;;4.65;;
12908;SDS011;6522;49.622;6.126;2024-02-26T16:12:19;5.05;;;4.75;;
12908;SDS011;6522;49.622;6.126;2024-02-26T16:15:04;5.40;;;4.30;;
12908;SDS011;6522;49.622;6.126;2024-02-26T16:17:52;5.28;;;4.60;;
12908;SDS011;6522;49.622;6.126;2024-02-26T16:20:38;4.53;;;4.25;;
12908;SDS011;6522;49.622;6.126;2024-02-26T16:23:25;3.97;;;3.78;;
12908;SDS011;6522;49.622;6.126;2024-02-26T16:26:12;4.68;;;4.37;;
12908;SDS011;6522;49.622;6.126;2024-02-26T16:28:59;3.90;;;3.70;;
12908;SDS011;6522;49.622;6.126;2024-02-26T16:31:46;4.32;;;4.03;;
12908;SDS011;6522;49.622;6.126;2024-02-26T16:34:32;4.18;;;3.87;;
12908;SDS011;6522;49.622;6.126;2024-02-26T16:37:19;4.22;;;3.92;;
12908;SDS011;6522;49.622;6.126;2024-02-26T16:40:06;4.40;;;4.10;;
12908;SDS011;6522;49.622;6.126;2024-02-26T16:42:56;4.28;;;3.87;;
12908;SDS011;6522;49.622;6.126;2024-02-26T16:45:42;4.20;;;3.90;;
12908;SDS011;6522;49.622;6.126;2024-02-26T16:48:33;3.90;;;3.60;;
12908;SDS011;6522;49.622;6.126;2024-02-26T16:51:16;4.00;;;3.75;;
12908;SDS011;6522;49.622;6.126;2024-02-26T16:54:03;3.80;;;3.50;;
12908;SDS011;6522;49.622;6.126;2024-02-26T16:56:50;4.32;;;4.00;;
12908;SDS011;6522;49.622;6.126;2024-02-26T16:59:37;4.43;;;4.03;;
12908;SDS011;6522;49.622;6.126;2024-02-26T17:02:23;4.70;;;4.30;;
12908;SDS011;6522;49.622;6.126;2024-02-26T17:05:11;4.60;;;4.20;;